Accueil
METAR-TAF:

METAR-TAF

Aéroports :

La Roche-sur-Yon, France

Aérodrome de La Roche-sur-Yon - Les Ajoncs

latitude: 46-42N, longitude: 001-23W, altitude: 90 m

Observation

Le bulletin a été fait il y a 20 minutes, à 00:30 UTC
Vent 2 kt de ouest/nord-ouest
Température 7°C
Humidité 100%
Pression 1021 hPa
Visibilité 10 km ou plus
pas de nuages en-dessous de 1500 mètres et pas de cumulonimbus.

METAR: LFRI 240030Z AUTO 29002KT CAVOK 07/07 Q1021

Heure: 02:50 (00:50 UTC)

Prévision

Le bulletin a été fait il y a 7 heures et 50 minutes, à 17:00 UTC
Prévision valable du 23 à 18 UTC au 24 à 18 UTC
Vent 4 kt de direction variable
Visibilité 10 km ou plus
Nuages épars à une hauteur de 2600 ft
Temporairement
du 24 à 12 UTC au 24 à 18 UTC
Vent 8 kt de ouest

TAF: LFRI 231700Z 2318/2418 VRB04KT 9999 SCT026 TEMPO 2412/2418 27008KT

Observations et prévisions météorologiques de plus de 4000 aéroports (messages METAR et TAF).

Les stations disponibles sont représentées par des disques jaunes et rouges sur la carte.

Passer la souris dessus pour voir le nom de la station.

Cliquer dessus pour voir les observations et prévisions météorologiques.

Pour changer de carte: cliquez sur les boutons verts avec une croix noire pour zoomer, sur le bouton vert avec un tiret pour effectuer un zoom arrière, ou sur les flèches vertes pour les cartes adjacentes.


METAR-TAF: